sensor_id;sensor_type;location;lat;lon;timestamp;P1;durP1;ratioP1;P2;durP2;ratioP2
51654;SDS011;37732;53.106;7.030;2023-08-07T00:01:20;9.13;;;5.90;;
51654;SDS011;37732;53.106;7.030;2023-08-07T00:03:46;7.00;;;5.55;;
51654;SDS011;37732;53.106;7.030;2023-08-07T00:06:12;11.57;;;5.47;;
51654;SDS011;37732;53.106;7.030;2023-08-07T00:08:40;8.13;;;6.22;;
51654;SDS011;37732;53.106;7.030;2023-08-07T00:11:08;5.85;;;5.03;;
51654;SDS011;37732;53.106;7.030;2023-08-07T00:13:36;7.80;;;5.05;;
51654;SDS011;37732;53.106;7.030;2023-08-07T00:16:04;7.80;;;5.90;;
51654;SDS011;37732;53.106;7.030;2023-08-07T00:18:32;9.55;;;5.18;;
51654;SDS011;37732;53.106;7.030;2023-08-07T00:20:58;9.15;;;5.72;;
51654;SDS011;37732;53.106;7.030;2023-08-07T00:23:24;9.18;;;5.55;;
51654;SDS011;37732;53.106;7.030;2023-08-07T00:25:50;10.77;;;4.95;;
51654;SDS011;37732;53.106;7.030;2023-08-07T00:28:18;8.95;;;5.90;;
51654;SDS011;37732;53.106;7.030;2023-08-07T00:30:46;11.07;;;6.40;;
51654;SDS011;37732;53.106;7.030;2023-08-07T00:33:13;9.10;;;5.35;;
51654;SDS011;37732;53.106;7.030;2023-08-07T00:35:40;8.57;;;5.63;;
51654;SDS011;37732;53.106;7.030;2023-08-07T00:38:06;9.27;;;5.55;;
51654;SDS011;37732;53.106;7.030;2023-08-07T00:40:36;8.88;;;5.43;;
51654;SDS011;37732;53.106;7.030;2023-08-07T00:43:03;8.70;;;6.22;;
51654;SDS011;37732;53.106;7.030;2023-08-07T00:45:36;10.23;;;4.60;;
51654;SDS011;37732;53.106;7.030;2023-08-07T00:48:04;8.25;;;4.63;;
51654;SDS011;37732;53.106;7.030;2023-08-07T00:50:32;9.68;;;4.95;;
51654;SDS011;37732;53.106;7.030;2023-08-07T00:52:59;7.90;;;4.97;;
51654;SDS011;37732;53.106;7.030;2023-08-07T00:55:27;7.80;;;4.65;;
51654;SDS011;37732;53.106;7.030;2023-08-07T00:57:55;8.68;;;5.05;;
51654;SDS011;37732;53.106;7.030;2023-08-07T01:03:01;7.60;;;4.65;;
51654;SDS011;37732;53.106;7.030;2023-08-07T01:05:30;7.68;;;4.82;;
51654;SDS011;37732;53.106;7.030;2023-08-07T01:07:57;9.23;;;5.30;;
51654;SDS011;37732;53.106;7.030;2023-08-07T01:11:07;7.85;;;4.55;;
51654;SDS011;37732;53.106;7.030;2023-08-07T01:13:32;5.35;;;3.50;;
51654;SDS011;37732;53.106;7.030;2023-08-07T01:16:01;5.88;;;3.03;;
51654;SDS011;37732;53.106;7.030;2023-08-07T01:18:30;5.30;;;3.00;;
51654;SDS011;37732;53.106;7.030;2023-08-07T01:20:57;5.00;;;2.45;;
51654;SDS011;37732;53.106;7.030;2023-08-07T01:23:24;6.38;;;2.78;;
51654;SDS011;37732;53.106;7.030;2023-08-07T01:25:52;9.55;;;3.30;;
51654;SDS011;37732;53.106;7.030;2023-08-07T01:28:31;8.60;;;3.97;;
51654;SDS011;37732;53.106;7.030;2023-08-07T01:31:02;6.82;;;2.92;;
51654;SDS011;37732;53.106;7.030;2023-08-07T01:33:33;7.47;;;3.30;;
51654;SDS011;37732;53.106;7.030;2023-08-07T01:36:01;8.18;;;4.70;;
51654;SDS011;37732;53.106;7.030;2023-08-07T01:38:29;11.88;;;4.97;;
51654;SDS011;37732;53.106;7.030;2023-08-07T01:40:56;6.15;;;3.95;;
51654;SDS011;37732;53.106;7.030;2023-08-07T01:43:26;7.40;;;4.65;;
51654;SDS011;37732;53.106;7.030;2023-08-07T01:45:53;8.73;;;5.00;;
51654;SDS011;37732;53.106;7.030;2023-08-07T01:48:20;7.78;;;3.88;;
51654;SDS011;37732;53.106;7.030;2023-08-07T01:50:49;7.20;;;4.40;;
51654;SDS011;37732;53.106;7.030;2023-08-07T01:53:18;5.40;;;3.63;;
51654;SDS011;37732;53.106;7.030;2023-08-07T01:55:46;7.30;;;4.38;;
51654;SDS011;37732;53.106;7.030;2023-08-07T01:58:14;6.70;;;3.97;;
51654;SDS011;37732;53.106;7.030;2023-08-07T02:00:40;7.07;;;3.83;;
51654;SDS011;37732;53.106;7.030;2023-08-07T02:03:08;5.32;;;3.85;;
51654;SDS011;37732;53.106;7.030;2023-08-07T02:05:38;5.57;;;3.45;;
51654;SDS011;37732;53.106;7.030;2023-08-07T02:08:06;6.63;;;4.25;;
51654;SDS011;37732;53.106;7.030;2023-08-07T02:10:34;6.68;;;3.40;;
51654;SDS011;37732;53.106;7.030;2023-08-07T02:13:01;6.18;;;4.35;;
51654;SDS011;37732;53.106;7.030;2023-08-07T02:15:29;7.80;;;4.13;;
51654;SDS011;37732;53.106;7.030;2023-08-07T02:17:55;16.48;;;7.65;;
51654;SDS011;37732;53.106;7.030;2023-08-07T02:20:24;12.10;;;7.60;;
51654;SDS011;37732;53.106;7.030;2023-08-07T02:22:52;14.50;;;6.95;;
51654;SDS011;37732;53.106;7.030;2023-08-07T02:25:20;11.40;;;6.00;;
51654;SDS011;37732;53.106;7.030;2023-08-07T02:27:48;10.00;;;5.07;;
51654;SDS011;37732;53.106;7.030;2023-08-07T02:30:14;8.43;;;5.03;;
51654;SDS011;37732;53.106;7.030;2023-08-07T02:32:42;7.00;;;4.43;;
51654;SDS011;37732;53.106;7.030;2023-08-07T02:35:11;8.48;;;5.03;;
51654;SDS011;37732;53.106;7.030;2023-08-07T02:37:37;7.97;;;5.15;;
51654;SDS011;37732;53.106;7.030;2023-08-07T02:40:05;9.10;;;4.25;;
51654;SDS011;37732;53.106;7.030;2023-08-07T02:42:34;8.55;;;4.60;;
51654;SDS011;37732;53.106;7.030;2023-08-07T02:45:02;9.50;;;5.28;;
51654;SDS011;37732;53.106;7.030;2023-08-07T02:47:31;11.55;;;7.05;;
51654;SDS011;37732;53.106;7.030;2023-08-07T02:49:57;25.98;;;20.63;;
51654;SDS011;37732;53.106;7.030;2023-08-07T02:52:27;34.92;;;30.90;;
51654;SDS011;37732;53.106;7.030;2023-08-07T02:54:53;26.83;;;23.95;;
51654;SDS011;37732;53.106;7.030;2023-08-07T02:57:19;30.10;;;25.35;;
51654;SDS011;37732;53.106;7.030;2023-08-07T02:59:46;36.20;;;30.38;;
51654;SDS011;37732;53.106;7.030;2023-08-07T03:02:13;35.95;;;30.13;;
51654;SDS011;37732;53.106;7.030;2023-08-07T03:04:39;26.75;;;23.63;;
51654;SDS011;37732;53.106;7.030;2023-08-07T03:07:07;34.40;;;30.70;;
51654;SDS011;37732;53.106;7.030;2023-08-07T03:09:33;44.30;;;37.97;;
51654;SDS011;37732;53.106;7.030;2023-08-07T03:12:01;31.65;;;28.23;;
51654;SDS011;37732;53.106;7.030;2023-08-07T03:14:29;32.17;;;28.75;;
51654;SDS011;37732;53.106;7.030;2023-08-07T03:16:57;36.83;;;32.42;;
51654;SDS011;37732;53.106;7.030;2023-08-07T03:19:23;33.97;;;29.20;;
51654;SDS011;37732;53.106;7.030;2023-08-07T03:21:51;58.33;;;48.50;;
51654;SDS011;37732;53.106;7.030;2023-08-07T03:24:19;40.40;;;35.78;;
51654;SDS011;37732;53.106;7.030;2023-08-07T03:26:45;52.65;;;43.90;;
51654;SDS011;37732;53.106;7.030;2023-08-07T03:29:13;39.20;;;29.58;;
51654;SDS011;37732;53.106;7.030;2023-08-07T03:31:40;30.70;;;25.92;;
51654;SDS011;37732;53.106;7.030;2023-08-07T03:34:08;21.52;;;15.52;;
51654;SDS011;37732;53.106;7.030;2023-08-07T03:36:34;17.60;;;13.65;;
51654;SDS011;37732;53.106;7.030;2023-08-07T03:39:00;20.58;;;15.70;;
51654;SDS011;37732;53.106;7.030;2023-08-07T03:41:26;24.73;;;20.13;;
51654;SDS011;37732;53.106;7.030;2023-08-07T03:43:54;31.67;;;20.05;;
51654;SDS011;37732;53.106;7.030;2023-08-07T03:46:22;33.22;;;27.08;;
51654;SDS011;37732;53.106;7.030;2023-08-07T03:48:54;50.42;;;35.63;;
51654;SDS011;37732;53.106;7.030;2023-08-07T03:51:20;50.95;;;43.20;;
51654;SDS011;37732;53.106;7.030;2023-08-07T03:53:48;46.83;;;40.65;;
51654;SDS011;37732;53.106;7.030;2023-08-07T03:56:17;41.53;;;36.45;;
51654;SDS011;37732;53.106;7.030;2023-08-07T03:58:44;50.33;;;42.83;;
51654;SDS011;37732;53.106;7.030;2023-08-07T04:01:11;50.05;;;42.40;;
51654;SDS011;37732;53.106;7.030;2023-08-07T04:03:38;46.88;;;41.60;;
51654;SDS011;37732;53.106;7.030;2023-08-07T04:06:04;48.60;;;38.80;;
51654;SDS011;37732;53.106;7.030;2023-08-07T04:08:30;35.22;;;26.33;;
51654;SDS011;37732;53.106;7.030;2023-08-07T04:11:00;27.85;;;21.63;;
51654;SDS011;37732;53.106;7.030;2023-08-07T04:13:27;17.33;;;11.25;;
51654;SDS011;37732;53.106;7.030;2023-08-07T04:15:55;12.27;;;7.38;;
51654;SDS011;37732;53.106;7.030;2023-08-07T04:18:21;12.35;;;6.22;;
51654;SDS011;37732;53.106;7.030;2023-08-07T04:20:54;14.18;;;5.97;;
51654;SDS011;37732;53.106;7.030;2023-08-07T04:23:22;10.82;;;5.13;;
51654;SDS011;37732;53.106;7.030;2023-08-07T04:25:48;11.27;;;5.68;;
51654;SDS011;37732;53.106;7.030;2023-08-07T04:28:17;12.98;;;5.93;;
51654;SDS011;37732;53.106;7.030;2023-08-07T04:30:45;10.95;;;4.63;;
51654;SDS011;37732;53.106;7.030;2023-08-07T04:33:23;11.98;;;5.03;;
51654;SDS011;37732;53.106;7.030;2023-08-07T04:35:51;10.98;;;4.43;;
51654;SDS011;37732;53.106;7.030;2023-08-07T04:38:17;12.07;;;4.20;;
51654;SDS011;37732;53.106;7.030;2023-08-07T04:40:46;9.73;;;4.28;;
51654;SDS011;37732;53.106;7.030;2023-08-07T04:43:14;7.57;;;3.45;;
51654;SDS011;37732;53.106;7.030;2023-08-07T04:45:42;8.25;;;3.50;;
51654;SDS011;37732;53.106;7.030;2023-08-07T04:48:11;7.82;;;3.60;;
51654;SDS011;37732;53.106;7.030;2023-08-07T04:50:37;9.25;;;3.40;;
51654;SDS011;37732;53.106;7.030;2023-08-07T04:53:04;7.78;;;3.65;;
51654;SDS011;37732;53.106;7.030;2023-08-07T04:55:32;10.82;;;3.83;;
51654;SDS011;37732;53.106;7.030;2023-08-07T04:58:00;8.75;;;3.80;;
51654;SDS011;37732;53.106;7.030;2023-08-07T05:00:27;12.15;;;4.28;;
51654;SDS011;37732;53.106;7.030;2023-08-07T05:02:55;9.38;;;4.65;;
51654;SDS011;37732;53.106;7.030;2023-08-07T05:05:21;8.77;;;4.00;;
51654;SDS011;37732;53.106;7.030;2023-08-07T05:07:48;12.15;;;4.63;;
51654;SDS011;37732;53.106;7.030;2023-08-07T05:10:14;8.63;;;3.97;;
51654;SDS011;37732;53.106;7.030;2023-08-07T05:12:42;12.40;;;4.43;;
51654;SDS011;37732;53.106;7.030;2023-08-07T05:15:10;14.18;;;4.32;;
51654;SDS011;37732;53.106;7.030;2023-08-07T05:17:36;12.75;;;5.20;;
51654;SDS011;37732;53.106;7.030;2023-08-07T05:20:04;10.15;;;3.95;;
51654;SDS011;37732;53.106;7.030;2023-08-07T05:22:31;14.15;;;4.90;;
51654;SDS011;37732;53.106;7.030;2023-08-07T05:24:57;13.32;;;4.45;;
51654;SDS011;37732;53.106;7.030;2023-08-07T05:27:24;9.57;;;4.57;;
51654;SDS011;37732;53.106;7.030;2023-08-07T05:29:50;11.07;;;4.57;;
51654;SDS011;37732;53.106;7.030;2023-08-07T05:32:16;13.63;;;4.65;;
51654;SDS011;37732;53.106;7.030;2023-08-07T05:34:43;16.63;;;6.50;;
51654;SDS011;37732;53.106;7.030;2023-08-07T05:37:11;10.82;;;4.53;;
51654;SDS011;37732;53.106;7.030;2023-08-07T05:39:38;16.25;;;5.22;;
51654;SDS011;37732;53.106;7.030;2023-08-07T05:42:04;9.70;;;4.78;;
51654;SDS011;37732;53.106;7.030;2023-08-07T05:44:34;9.93;;;4.32;;
51654;SDS011;37732;53.106;7.030;2023-08-07T05:47:01;11.75;;;4.28;;
51654;SDS011;37732;53.106;7.030;2023-08-07T05:49:27;9.32;;;4.57;;
51654;SDS011;37732;53.106;7.030;2023-08-07T05:51:53;14.93;;;4.80;;
51654;SDS011;37732;53.106;7.030;2023-08-07T05:54:21;12.65;;;5.40;;
51654;SDS011;37732;53.106;7.030;2023-08-07T05:56:47;15.85;;;5.43;;
51654;SDS011;37732;53.106;7.030;2023-08-07T05:59:13;10.63;;;4.65;;
51654;SDS011;37732;53.106;7.030;2023-08-07T06:01:41;16.50;;;5.53;;
51654;SDS011;37732;53.106;7.030;2023-08-07T06:04:07;14.40;;;5.00;;
51654;SDS011;37732;53.106;7.030;2023-08-07T06:06:34;12.13;;;5.30;;
51654;SDS011;37732;53.106;7.030;2023-08-07T06:09:01;13.02;;;5.25;;
51654;SDS011;37732;53.106;7.030;2023-08-07T06:11:29;13.45;;;5.05;;
51654;SDS011;37732;53.106;7.030;2023-08-07T06:13:56;16.10;;;5.75;;
51654;SDS011;37732;53.106;7.030;2023-08-07T06:16:22;15.65;;;6.03;;
51654;SDS011;37732;53.106;7.030;2023-08-07T06:18:50;13.57;;;5.10;;
51654;SDS011;37732;53.106;7.030;2023-08-07T06:21:16;11.40;;;5.38;;
51654;SDS011;37732;53.106;7.030;2023-08-07T06:23:42;13.35;;;5.95;;
51654;SDS011;37732;53.106;7.030;2023-08-07T06:26:08;13.75;;;5.43;;
51654;SDS011;37732;53.106;7.030;2023-08-07T06:28:36;10.38;;;5.32;;
51654;SDS011;37732;53.106;7.030;2023-08-07T06:31:04;13.95;;;4.75;;
51654;SDS011;37732;53.106;7.030;2023-08-07T06:33:31;15.00;;;5.95;;
51654;SDS011;37732;53.106;7.030;2023-08-07T06:35:58;12.10;;;4.57;;
51654;SDS011;37732;53.106;7.030;2023-08-07T06:38:26;11.05;;;4.85;;
51654;SDS011;37732;53.106;7.030;2023-08-07T06:40:53;12.43;;;5.05;;
51654;SDS011;37732;53.106;7.030;2023-08-07T06:43:19;9.75;;;4.00;;
51654;SDS011;37732;53.106;7.030;2023-08-07T06:45:52;10.15;;;4.15;;
51654;SDS011;37732;53.106;7.030;2023-08-07T06:48:18;11.85;;;4.70;;
51654;SDS011;37732;53.106;7.030;2023-08-07T06:50:46;11.55;;;4.90;;
51654;SDS011;37732;53.106;7.030;2023-08-07T06:53:13;11.48;;;4.35;;
51654;SDS011;37732;53.106;7.030;2023-08-07T06:55:41;13.20;;;4.97;;
51654;SDS011;37732;53.106;7.030;2023-08-07T06:58:07;12.40;;;5.40;;
51654;SDS011;37732;53.106;7.030;2023-08-07T07:00:35;12.88;;;4.88;;
51654;SDS011;37732;53.106;7.030;2023-08-07T07:03:04;17.13;;;5.75;;
51654;SDS011;37732;53.106;7.030;2023-08-07T07:05:33;9.75;;;5.00;;
51654;SDS011;37732;53.106;7.030;2023-08-07T07:08:01;11.65;;;5.60;;
51654;SDS011;37732;53.106;7.030;2023-08-07T07:10:27;12.40;;;4.53;;
51654;SDS011;37732;53.106;7.030;2023-08-07T07:12:56;11.88;;;4.63;;
51654;SDS011;37732;53.106;7.030;2023-08-07T07:15:22;12.93;;;4.53;;
51654;SDS011;37732;53.106;7.030;2023-08-07T07:17:50;10.20;;;4.00;;
51654;SDS011;37732;53.106;7.030;2023-08-07T07:20:16;9.73;;;3.70;;
51654;SDS011;37732;53.106;7.030;2023-08-07T07:22:43;11.85;;;4.70;;
51654;SDS011;37732;53.106;7.030;2023-08-07T07:25:09;11.10;;;4.00;;
51654;SDS011;37732;53.106;7.030;2023-08-07T07:27:36;11.20;;;4.22;;
51654;SDS011;37732;53.106;7.030;2023-08-07T07:30:02;8.70;;;4.07;;
51654;SDS011;37732;53.106;7.030;2023-08-07T07:32:31;14.30;;;4.90;;
51654;SDS011;37732;53.106;7.030;2023-08-07T07:34:57;12.38;;;4.40;;
51654;SDS011;37732;53.106;7.030;2023-08-07T07:37:23;11.88;;;4.05;;
51654;SDS011;37732;53.106;7.030;2023-08-07T07:39:51;10.38;;;3.83;;
51654;SDS011;37732;53.106;7.030;2023-08-07T07:42:19;11.77;;;4.68;;
51654;SDS011;37732;53.106;7.030;2023-08-07T07:44:45;10.23;;;4.03;;
51654;SDS011;37732;53.106;7.030;2023-08-07T07:47:13;11.15;;;4.28;;
51654;SDS011;37732;53.106;7.030;2023-08-07T07:49:39;12.93;;;4.72;;
51654;SDS011;37732;53.106;7.030;2023-08-07T07:52:05;13.85;;;4.70;;
51654;SDS011;37732;53.106;7.030;2023-08-07T07:54:34;12.25;;;4.50;;
51654;SDS011;37732;53.106;7.030;2023-08-07T07:57:02;9.65;;;4.07;;
51654;SDS011;37732;53.106;7.030;2023-08-07T07:59:28;10.63;;;4.30;;
51654;SDS011;37732;53.106;7.030;2023-08-07T08:01:56;13.32;;;4.75;;
51654;SDS011;37732;53.106;7.030;2023-08-07T08:04:24;13.20;;;4.28;;
51654;SDS011;37732;53.106;7.030;2023-08-07T08:06:51;11.80;;;4.32;;
51654;SDS011;37732;53.106;7.030;2023-08-07T08:09:19;12.02;;;4.35;;
51654;SDS011;37732;53.106;7.030;2023-08-07T08:11:46;11.55;;;4.38;;
51654;SDS011;37732;53.106;7.030;2023-08-07T08:14:14;6.65;;;3.65;;
51654;SDS011;37732;53.106;7.030;2023-08-07T08:16:41;10.73;;;4.00;;
51654;SDS011;37732;53.106;7.030;2023-08-07T08:19:08;16.80;;;4.22;;
51654;SDS011;37732;53.106;7.030;2023-08-07T08:21:34;14.35;;;4.68;;
51654;SDS011;37732;53.106;7.030;2023-08-07T08:24:03;7.85;;;3.45;;
51654;SDS011;37732;53.106;7.030;2023-08-07T08:26:31;8.85;;;3.75;;
51654;SDS011;37732;53.106;7.030;2023-08-07T08:28:57;10.45;;;4.03;;
51654;SDS011;37732;53.106;7.030;2023-08-07T08:31:23;14.32;;;4.03;;
51654;SDS011;37732;53.106;7.030;2023-08-07T08:33:51;9.18;;;3.47;;
51654;SDS011;37732;53.106;7.030;2023-08-07T08:36:17;11.40;;;3.75;;
51654;SDS011;37732;53.106;7.030;2023-08-07T08:38:44;10.13;;;3.83;;
51654;SDS011;37732;53.106;7.030;2023-08-07T08:41:13;10.25;;;3.63;;
51654;SDS011;37732;53.106;7.030;2023-08-07T08:43:40;10.20;;;3.28;;
51654;SDS011;37732;53.106;7.030;2023-08-07T08:46:10;8.98;;;3.47;;
51654;SDS011;37732;53.106;7.030;2023-08-07T08:48:38;11.25;;;4.47;;
51654;SDS011;37732;53.106;7.030;2023-08-07T08:51:05;10.30;;;3.42;;
51654;SDS011;37732;53.106;7.030;2023-08-07T08:53:34;9.65;;;3.70;;
51654;SDS011;37732;53.106;7.030;2023-08-07T08:56:00;8.15;;;3.38;;
51654;SDS011;37732;53.106;7.030;2023-08-07T08:58:27;13.38;;;4.38;;
51654;SDS011;37732;53.106;7.030;2023-08-07T09:00:54;10.38;;;4.47;;
51654;SDS011;37732;53.106;7.030;2023-08-07T09:03:23;11.85;;;5.07;;
51654;SDS011;37732;53.106;7.030;2023-08-07T09:05:50;11.05;;;4.00;;
51654;SDS011;37732;53.106;7.030;2023-08-07T09:08:22;10.38;;;4.05;;
51654;SDS011;37732;53.106;7.030;2023-08-07T09:10:48;9.43;;;3.88;;
51654;SDS011;37732;53.106;7.030;2023-08-07T09:13:15;13.88;;;4.75;;
51654;SDS011;37732;53.106;7.030;2023-08-07T09:15:43;12.13;;;4.38;;
51654;SDS011;37732;53.106;7.030;2023-08-07T09:18:16;10.40;;;4.20;;
51654;SDS011;37732;53.106;7.030;2023-08-07T09:20:44;9.68;;;4.25;;
51654;SDS011;37732;53.106;7.030;2023-08-07T09:23:10;9.15;;;3.90;;
51654;SDS011;37732;53.106;7.030;2023-08-07T09:25:38;11.90;;;4.22;;
51654;SDS011;37732;53.106;7.030;2023-08-07T09:28:08;10.27;;;3.67;;
51654;SDS011;37732;53.106;7.030;2023-08-07T09:30:35;10.63;;;4.13;;
51654;SDS011;37732;53.106;7.030;2023-08-07T09:33:07;10.50;;;3.45;;
51654;SDS011;37732;53.106;7.030;2023-08-07T09:35:34;14.20;;;3.22;;
51654;SDS011;37732;53.106;7.030;2023-08-07T09:38:00;9.27;;;4.10;;
51654;SDS011;37732;53.106;7.030;2023-08-07T09:40:27;7.45;;;2.72;;
51654;SDS011;37732;53.106;7.030;2023-08-07T09:42:54;13.57;;;3.53;;
51654;SDS011;37732;53.106;7.030;2023-08-07T09:45:21;14.13;;;4.28;;
51654;SDS011;37732;53.106;7.030;2023-08-07T09:47:59;10.73;;;4.35;;
51654;SDS011;37732;53.106;7.030;2023-08-07T09:50:28;12.23;;;4.28;;
51654;SDS011;37732;53.106;7.030;2023-08-07T09:52:56;8.75;;;3.95;;
51654;SDS011;37732;53.106;7.030;2023-08-07T09:55:24;15.02;;;4.45;;
51654;SDS011;37732;53.106;7.030;2023-08-07T09:57:51;9.40;;;4.13;;
51654;SDS011;37732;53.106;7.030;2023-08-07T10:00:17;12.95;;;3.55;;
51654;SDS011;37732;53.106;7.030;2023-08-07T10:02:48;13.75;;;3.92;;
51654;SDS011;37732;53.106;7.030;2023-08-07T10:05:16;10.93;;;3.78;;
51654;SDS011;37732;53.106;7.030;2023-08-07T10:07:42;9.02;;;3.55;;
51654;SDS011;37732;53.106;7.030;2023-08-07T10:10:09;9.50;;;3.75;;
51654;SDS011;37732;53.106;7.030;2023-08-07T10:12:37;9.93;;;3.25;;
51654;SDS011;37732;53.106;7.030;2023-08-07T10:15:06;10.02;;;3.33;;
51654;SDS011;37732;53.106;7.030;2023-08-07T10:17:36;8.57;;;3.40;;
51654;SDS011;37732;53.106;7.030;2023-08-07T10:20:04;7.05;;;3.75;;
51654;SDS011;37732;53.106;7.030;2023-08-07T10:22:33;8.15;;;3.05;;
51654;SDS011;37732;53.106;7.030;2023-08-07T10:25:02;8.10;;;3.10;;
51654;SDS011;37732;53.106;7.030;2023-08-07T10:27:33;10.15;;;3.22;;
51654;SDS011;37732;53.106;7.030;2023-08-07T10:30:01;9.13;;;3.38;;
51654;SDS011;37732;53.106;7.030;2023-08-07T10:32:29;8.52;;;3.15;;
51654;SDS011;37732;53.106;7.030;2023-08-07T10:34:56;6.32;;;2.78;;
51654;SDS011;37732;53.106;7.030;2023-08-07T10:40:10;8.00;;;3.13;;
51654;SDS011;37732;53.106;7.030;2023-08-07T10:45:18;11.25;;;3.17;;
51654;SDS011;37732;53.106;7.030;2023-08-07T10:50:36;6.10;;;3.08;;
51654;SDS011;37732;53.106;7.030;2023-08-07T10:53:31;10.13;;;3.47;;
51654;SDS011;37732;53.106;7.030;2023-08-07T10:55:59;17.93;;;3.67;;
51654;SDS011;37732;53.106;7.030;2023-08-07T10:58:34;9.57;;;4.63;;
51654;SDS011;37732;53.106;7.030;2023-08-07T11:01:21;10.32;;;3.50;;
51654;SDS011;37732;53.106;7.030;2023-08-07T11:03:49;9.52;;;3.30;;
51654;SDS011;37732;53.106;7.030;2023-08-07T11:06:16;8.93;;;3.65;;
51654;SDS011;37732;53.106;7.030;2023-08-07T11:08:44;12.75;;;3.80;;
51654;SDS011;37732;53.106;7.030;2023-08-07T11:11:10;10.50;;;3.58;;
51654;SDS011;37732;53.106;7.030;2023-08-07T11:13:37;8.80;;;3.83;;
51654;SDS011;37732;53.106;7.030;2023-08-07T11:16:05;12.70;;;3.60;;
51654;SDS011;37732;53.106;7.030;2023-08-07T11:18:33;11.90;;;3.65;;
51654;SDS011;37732;53.106;7.030;2023-08-07T11:21:01;8.80;;;3.40;;
51654;SDS011;37732;53.106;7.030;2023-08-07T11:23:29;6.65;;;2.90;;
51654;SDS011;37732;53.106;7.030;2023-08-07T11:25:55;6.93;;;2.90;;
51654;SDS011;37732;53.106;7.030;2023-08-07T11:28:22;7.72;;;3.10;;
51654;SDS011;37732;53.106;7.030;2023-08-07T11:30:52;8.65;;;2.80;;
51654;SDS011;37732;53.106;7.030;2023-08-07T11:33:23;5.78;;;2.45;;
51654;SDS011;37732;53.106;7.030;2023-08-07T11:35:49;5.28;;;2.20;;
51654;SDS011;37732;53.106;7.030;2023-08-07T11:38:33;8.27;;;2.90;;
51654;SDS011;37732;53.106;7.030;2023-08-07T11:41:02;6.18;;;2.92;;
51654;SDS011;37732;53.106;7.030;2023-08-07T11:43:30;13.27;;;3.90;;
51654;SDS011;37732;53.106;7.030;2023-08-07T11:45:58;11.13;;;2.80;;
51654;SDS011;37732;53.106;7.030;2023-08-07T11:48:28;6.65;;;2.90;;
51654;SDS011;37732;53.106;7.030;2023-08-07T11:50:55;9.65;;;2.97;;
51654;SDS011;37732;53.106;7.030;2023-08-07T11:53:26;9.80;;;3.50;;
51654;SDS011;37732;53.106;7.030;2023-08-07T11:55:57;9.82;;;3.38;;
51654;SDS011;37732;53.106;7.030;2023-08-07T11:58:25;7.47;;;2.92;;
51654;SDS011;37732;53.106;7.030;2023-08-07T12:00:54;10.65;;;3.08;;
51654;SDS011;37732;53.106;7.030;2023-08-07T12:03:23;8.18;;;4.18;;
51654;SDS011;37732;53.106;7.030;2023-08-07T12:05:52;8.60;;;3.55;;
51654;SDS011;37732;53.106;7.030;2023-08-07T12:08:21;8.20;;;3.30;;
51654;SDS011;37732;53.106;7.030;2023-08-07T12:10:54;9.07;;;2.60;;
51654;SDS011;37732;53.106;7.030;2023-08-07T12:13:23;7.13;;;2.97;;
51654;SDS011;37732;53.106;7.030;2023-08-07T12:15:55;6.43;;;2.92;;
51654;SDS011;37732;53.106;7.030;2023-08-07T12:18:23;6.55;;;2.60;;
51654;SDS011;37732;53.106;7.030;2023-08-07T12:20:51;8.23;;;2.90;;
51654;SDS011;37732;53.106;7.030;2023-08-07T12:23:20;6.07;;;2.42;;
51654;SDS011;37732;53.106;7.030;2023-08-07T12:25:47;7.30;;;2.38;;
51654;SDS011;37732;53.106;7.030;2023-08-07T12:28:15;5.65;;;2.00;;
51654;SDS011;37732;53.106;7.030;2023-08-07T12:30:44;8.02;;;1.88;;
51654;SDS011;37732;53.106;7.030;2023-08-07T12:33:13;5.20;;;2.03;;
51654;SDS011;37732;53.106;7.030;2023-08-07T12:35:40;4.15;;;2.00;;
51654;SDS011;37732;53.106;7.030;2023-08-07T12:38:07;4.93;;;2.08;;
51654;SDS011;37732;53.106;7.030;2023-08-07T12:40:34;5.03;;;2.15;;
51654;SDS011;37732;53.106;7.030;2023-08-07T12:43:03;7.15;;;2.08;;
51654;SDS011;37732;53.106;7.030;2023-08-07T12:45:33;5.72;;;2.85;;
51654;SDS011;37732;53.106;7.030;2023-08-07T12:48:01;5.40;;;2.10;;
51654;SDS011;37732;53.106;7.030;2023-08-07T12:50:30;4.65;;;1.90;;
51654;SDS011;37732;53.106;7.030;2023-08-07T12:52:56;5.78;;;2.60;;
51654;SDS011;37732;53.106;7.030;2023-08-07T12:55:24;5.53;;;2.85;;
51654;SDS011;37732;53.106;7.030;2023-08-07T12:57:56;6.10;;;2.33;;
51654;SDS011;37732;53.106;7.030;2023-08-07T13:00:23;4.38;;;2.58;;
51654;SDS011;37732;53.106;7.030;2023-08-07T13:02:52;7.13;;;2.70;;
51654;SDS011;37732;53.106;7.030;2023-08-07T13:05:19;6.93;;;2.72;;
51654;SDS011;37732;53.106;7.030;2023-08-07T13:07:46;6.93;;;3.15;;
51654;SDS011;37732;53.106;7.030;2023-08-07T13:10:13;5.25;;;2.80;;
51654;SDS011;37732;53.106;7.030;2023-08-07T13:12:41;9.45;;;2.22;;
51654;SDS011;37732;53.106;7.030;2023-08-07T13:15:08;7.28;;;2.90;;
51654;SDS011;37732;53.106;7.030;2023-08-07T13:17:36;9.18;;;2.63;;
51654;SDS011;37732;53.106;7.030;2023-08-07T13:20:03;5.15;;;2.40;;
51654;SDS011;37732;53.106;7.030;2023-08-07T13:22:36;7.85;;;2.75;;
51654;SDS011;37732;53.106;7.030;2023-08-07T13:25:04;6.57;;;2.72;;
51654;SDS011;37732;53.106;7.030;2023-08-07T13:27:31;6.45;;;2.92;;
51654;SDS011;37732;53.106;7.030;2023-08-07T13:29:58;7.50;;;2.85;;
51654;SDS011;37732;53.106;7.030;2023-08-07T13:32:27;7.88;;;3.10;;
51654;SDS011;37732;53.106;7.030;2023-08-07T13:34:53;11.52;;;2.92;;
51654;SDS011;37732;53.106;7.030;2023-08-07T13:37:20;4.65;;;2.53;;
51654;SDS011;37732;53.106;7.030;2023-08-07T13:39:46;7.25;;;2.75;;
51654;SDS011;37732;53.106;7.030;2023-08-07T13:42:15;7.22;;;3.05;;
51654;SDS011;37732;53.106;7.030;2023-08-07T13:44:43;6.38;;;2.70;;
51654;SDS011;37732;53.106;7.030;2023-08-07T13:47:09;6.32;;;2.33;;
51654;SDS011;37732;53.106;7.030;2023-08-07T13:49:37;6.13;;;3.13;;
51654;SDS011;37732;53.106;7.030;2023-08-07T13:52:05;8.13;;;3.38;;
51654;SDS011;37732;53.106;7.030;2023-08-07T13:54:32;8.18;;;3.58;;
51654;SDS011;37732;53.106;7.030;2023-08-07T13:56:59;7.90;;;3.33;;
51654;SDS011;37732;53.106;7.030;2023-08-07T13:59:26;9.88;;;3.55;;
51654;SDS011;37732;53.106;7.030;2023-08-07T14:01:54;10.32;;;3.58;;
51654;SDS011;37732;53.106;7.030;2023-08-07T14:04:22;6.00;;;2.45;;
51654;SDS011;37732;53.106;7.030;2023-08-07T14:06:49;9.23;;;3.47;;
51654;SDS011;37732;53.106;7.030;2023-08-07T14:09:15;8.25;;;3.13;;
51654;SDS011;37732;53.106;7.030;2023-08-07T14:11:47;8.30;;;2.97;;
51654;SDS011;37732;53.106;7.030;2023-08-07T14:14:15;7.93;;;3.35;;
51654;SDS011;37732;53.106;7.030;2023-08-07T14:16:42;9.27;;;3.30;;
51654;SDS011;37732;53.106;7.030;2023-08-07T14:19:10;6.97;;;2.97;;
51654;SDS011;37732;53.106;7.030;2023-08-07T14:21:38;6.05;;;3.13;;
51654;SDS011;37732;53.106;7.030;2023-08-07T14:24:04;7.47;;;3.20;;
51654;SDS011;37732;53.106;7.030;2023-08-07T14:26:32;10.07;;;3.17;;
51654;SDS011;37732;53.106;7.030;2023-08-07T14:28:58;7.80;;;3.88;;
51654;SDS011;37732;53.106;7.030;2023-08-07T14:31:25;9.68;;;3.78;;
51654;SDS011;37732;53.106;7.030;2023-08-07T14:33:51;7.60;;;3.05;;
51654;SDS011;37732;53.106;7.030;2023-08-07T14:36:19;7.72;;;3.15;;
51654;SDS011;37732;53.106;7.030;2023-08-07T14:38:45;6.60;;;3.42;;
51654;SDS011;37732;53.106;7.030;2023-08-07T14:41:12;7.60;;;4.15;;
51654;SDS011;37732;53.106;7.030;2023-08-07T14:43:40;9.82;;;3.85;;
51654;SDS011;37732;53.106;7.030;2023-08-07T14:46:07;10.75;;;3.75;;
51654;SDS011;37732;53.106;7.030;2023-08-07T14:48:33;9.57;;;4.30;;
51654;SDS011;37732;53.106;7.030;2023-08-07T14:50:59;10.45;;;4.05;;
51654;SDS011;37732;53.106;7.030;2023-08-07T14:53:27;8.20;;;3.97;;
51654;SDS011;37732;53.106;7.030;2023-08-07T14:55:53;6.68;;;3.53;;